Time;durP1;ratioP1;P1;durP2;ratioP2;P2;SDS_P1;SDS_P2;PMS_P1;PMS_P2;Temp;Humidity;BMP_temperature;BMP_pressure;BME280_temperature;BME280_humidity;BME280_pressure;Samples;Min_cycle;Max_cycle;Signal;HPM_P1;HPM_P2
2023/01/16 00:00:20;;;;;;;9.90;6.00;;;5.00;99.90;;;;;;6156871;23;20065;-86
2023/01/16 00:02:45;;;;;;;11.32;6.10;;;4.50;99.90;;;;;;6155295;23;20467;-85
2023/01/16 00:05:11;;;;;;;9.60;6.10;;;4.60;99.90;;;;;;6130902;23;20060;-86
2023/01/16 00:07:37;;;;;;;10.10;6.05;;;4.60;99.90;;;;;;6154641;23;20009;-86
2023/01/16 00:10:04;;;;;;;10.95;6.10;;;4.60;99.90;;;;;;6131340;23;20014;-85
2023/01/16 00:12:30;;;;;;;13.05;5.93;;;4.60;99.90;;;;;;6130768;23;20019;-85
2023/01/16 00:14:55;;;;;;;14.18;6.07;;;4.60;99.90;;;;;;6156706;23;20045;-86
2023/01/16 00:17:21;;;;;;;9.70;5.22;;;4.60;99.90;;;;;;6130225;23;20040;-86
2023/01/16 00:19:47;;;;;;;9.27;5.10;;;4.50;99.90;;;;;;6129469;23;20029;-86
2023/01/16 00:22:13;;;;;;;8.07;4.95;;;4.40;99.90;;;;;;6153867;23;20014;-86
2023/01/16 00:24:39;;;;;;;7.05;4.68;;;4.40;99.90;;;;;;6130388;23;20057;-85
2023/01/16 00:27:04;;;;;;;13.18;5.30;;;4.40;99.90;;;;;;6129665;23;20021;-84
2023/01/16 00:29:30;;;;;;;10.57;5.45;;;4.30;99.90;;;;;;6129810;23;20021;-86
2023/01/16 00:31:55;;;;;;;12.30;5.40;;;4.20;99.90;;;;;;6154622;23;20017;-86
2023/01/16 00:34:21;;;;;;;7.85;4.95;;;4.30;99.90;;;;;;6153681;23;20504;-86
2023/01/16 00:36:47;;;;;;;11.10;4.32;;;4.10;99.90;;;;;;6153383;23;20449;-86
2023/01/16 00:39:12;;;;;;;9.98;5.03;;;4.00;99.90;;;;;;6154140;23;20017;-86
2023/01/16 00:41:38;;;;;;;9.20;4.85;;;3.90;99.90;;;;;;6129380;23;20010;-86
2023/01/16 00:44:04;;;;;;;12.40;5.18;;;3.80;99.90;;;;;;6156076;23;20031;-86
2023/01/16 00:46:29;;;;;;;10.20;5.30;;;3.70;99.90;;;;;;6132779;23;20048;-85
2023/01/16 00:48:56;;;;;;;13.05;5.30;;;3.60;99.90;;;;;;6131793;23;20125;-86
2023/01/16 00:51:21;;;;;;;12.15;5.40;;;3.50;99.90;;;;;;6130692;23;20017;-86
2023/01/16 00:53:47;;;;;;;9.50;4.82;;;3.50;99.90;;;;;;6155732;23;20013;-86
2023/01/16 00:56:13;;;;;;;10.18;5.22;;;3.40;99.90;;;;;;6156056;23;20014;-85
2023/01/16 00:58:39;;;;;;;12.02;5.05;;;3.30;99.90;;;;;;6155789;23;20085;-86
2023/01/16 01:01:05;;;;;;;10.60;5.20;;;3.20;99.90;;;;;;6155877;23;20017;-85
2023/01/16 01:03:31;;;;;;;12.65;5.03;;;4.10;99.90;;;;;;6156326;23;20369;-86
2023/01/16 01:05:57;;;;;;;11.32;5.30;;;3.20;99.90;;;;;;6130099;23;20009;-86
2023/01/16 01:08:22;;;;;;;11.73;5.70;;;3.10;99.90;;;;;;6156664;23;20020;-86
2023/01/16 01:10:48;;;;;;;10.70;5.47;;;3.50;99.90;;;;;;6131310;23;20413;-86
2023/01/16 01:13:14;;;;;;;9.05;5.20;;;3.00;99.90;;;;;;6156833;23;20225;-86
2023/01/16 01:15:40;;;;;;;13.73;5.85;;;3.20;99.90;;;;;;6131489;23;20160;-85
2023/01/16 01:18:05;;;;;;;11.95;5.47;;;2.90;99.90;;;;;;6156562;23;20032;-87
2023/01/16 01:20:32;;;;;;;13.63;5.82;;;2.80;99.90;;;;;;6130032;23;20356;-86
2023/01/16 01:22:57;;;;;;;13.18;5.63;;;2.80;99.90;;;;;;6155801;23;20352;-85
2023/01/16 01:25:23;;;;;;;13.05;5.65;;;3.20;99.90;;;;;;6157360;23;20049;-86
2023/01/16 01:27:49;;;;;;;10.40;5.38;;;2.70;99.90;;;;;;6130329;23;20036;-86
2023/01/16 01:30:15;;;;;;;11.25;6.18;;;2.70;99.90;;;;;;6154880;23;20040;-86
2023/01/16 01:32:40;;;;;;;13.30;5.82;;;2.70;99.90;;;;;;6130783;23;20472;-86
2023/01/16 01:35:07;;;;;;;13.73;5.40;;;2.60;99.90;;;;;;6130874;23;20048;-86
2023/01/16 01:37:33;;;;;;;11.68;5.80;;;2.60;99.90;;;;;;6130929;23;20097;-86
2023/01/16 01:39:59;;;;;;;12.82;5.82;;;2.60;99.90;;;;;;6131266;23;20060;-86
2023/01/16 01:42:43;;;;;;;11.90;6.05;;;2.90;99.90;;;;;;6130428;23;20013;-85
2023/01/16 01:45:12;;;;;;;;;;;2.60;99.90;;;;;;6131469;23;20017;-86
2023/01/16 01:47:43;;;;;;;13.30;6.00;;;2.50;99.90;;;;;;6155407;23;19916;-86
2023/01/16 01:50:45;;;;;;;10.88;5.80;;;2.50;99.90;;;;;;6130773;23;20013;-86
2023/01/16 01:53:32;;;;;;;16.70;6.25;;;2.50;99.90;;;;;;6131011;23;20024;-85
2023/01/16 01:56:05;;;;;;;14.40;5.90;;;2.40;99.90;;;;;;6155677;23;20389;-85
2023/01/16 01:58:32;;;;;;;14.95;6.63;;;2.40;99.90;;;;;;6156838;23;20491;-86
2023/01/16 02:01:00;;;;;;;15.32;6.57;;;2.50;99.90;;;;;;6130088;23;20014;-86
2023/01/16 02:03:34;;;;;;;14.15;6.55;;;2.60;99.90;;;;;;6129837;23;20044;-86
2023/01/16 02:06:05;;;;;;;13.10;6.50;;;2.60;99.90;;;;;;6154897;23;20036;-85
2023/01/16 02:08:32;;;;;;;11.65;6.30;;;2.70;99.90;;;;;;6155546;23;20005;-86
2023/01/16 02:11:36;;;;;;;18.42;6.45;;;2.80;99.90;;;;;;6154971;23;20294;-86
2023/01/16 02:14:07;;;;;;;13.57;6.18;;;2.80;99.90;;;;;;6106099;23;20014;-86
2023/01/16 02:19:54;;;;;;;14.90;6.30;;;3.00;99.90;;;;;;6154321;23;20018;-85
2023/01/16 02:22:29;;;;;;;12.20;5.65;;;3.00;99.90;;;;;;6154688;23;20440;-86
2023/01/16 02:25:12;;;;;;;12.30;5.85;;;3.10;99.90;;;;;;6155705;23;20201;-86
2023/01/16 02:27:56;;;;;;;14.88;5.78;;;3.10;99.90;;;;;;6154528;23;20087;-84
2023/01/16 02:30:33;;;;;;;14.30;4.80;;;3.10;99.90;;;;;;6130689;23;20052;-86
2023/01/16 02:33:36;;;;;;;13.77;5.15;;;3.10;99.90;;;;;;6154228;23;20139;-86
2023/01/16 02:36:24;;;;;;;14.23;5.57;;;3.10;99.90;;;;;;6155496;23;20024;-87
2023/01/16 02:39:18;;;;;;;14.95;5.13;;;3.20;99.90;;;;;;6130090;23;20009;-86
2023/01/16 02:41:47;;;;;;;14.65;4.70;;;3.20;99.90;;;;;;6155592;23;20085;-85
2023/01/16 02:44:38;;;;;;;12.35;5.55;;;3.20;99.90;;;;;;6129951;23;20068;-86
2023/01/16 02:47:43;;;;;;;11.75;5.40;;;3.20;99.90;;;;;;6153969;23;20013;-87
2023/01/16 02:50:29;;;;;;;13.45;4.90;;;3.20;99.90;;;;;;6141261;23;20067;-86
2023/01/16 02:53:16;;;;;;;14.45;5.40;;;3.20;99.90;;;;;;6155052;23;20475;-86
2023/01/16 02:55:57;;;;;;;11.52;4.55;;;3.30;99.90;;;;;;6130442;23;20351;-86
2023/01/16 02:58:26;;;;;;;11.13;5.20;;;3.20;99.90;;;;;;6154709;23;20055;-86
2023/01/16 03:00:57;;;;;;;17.50;5.45;;;3.70;99.90;;;;;;6155939;23;20041;-86
2023/01/16 03:03:42;;;;;;;12.68;4.78;;;3.20;99.90;;;;;;6155987;23;20010;-85
2023/01/16 03:06:24;;;;;;;10.32;5.00;;;3.30;99.90;;;;;;6129465;23;20013;-86
2023/01/16 03:09:08;;;;;;;9.93;4.93;;;3.30;99.90;;;;;;6156557;23;20048;-85
2023/01/16 03:11:50;;;;;;;12.88;4.55;;;3.30;99.90;;;;;;6129799;23;20009;-85
2023/01/16 03:14:45;;;;;;;11.60;4.65;;;3.40;99.90;;;;;;6156744;23;20025;-85
2023/01/16 03:17:38;;;;;;;9.90;5.00;;;3.30;99.90;;;;;;6153483;23;20021;-86
2023/01/16 03:20:12;;;;;;;12.77;4.30;;;3.20;99.90;;;;;;6128146;23;20009;-86
2023/01/16 03:22:58;;;;;;;13.18;4.50;;;3.10;99.90;;;;;;6129772;23;20096;-85
2023/01/16 03:25:49;;;;;;;10.25;4.53;;;3.10;99.90;;;;;;6154438;23;20392;-86
2023/01/16 03:28:41;;;;;;;9.93;4.68;;;3.00;99.90;;;;;;6154358;23;20028;-86
2023/01/16 03:31:13;;;;;;;15.43;5.68;;;2.90;99.90;;;;;;6129449;23;20068;-86
2023/01/16 03:34:08;;;;;;;18.00;5.60;;;3.00;99.90;;;;;;6130227;23;20100;-86
2023/01/16 03:36:53;;;;;;;15.68;5.45;;;3.00;99.90;;;;;;6155977;23;20063;-86
2023/01/16 03:39:25;;;;;;;14.68;4.97;;;3.10;99.90;;;;;;6155446;23;20380;-86
2023/01/16 03:41:53;;;;;;;13.52;5.30;;;3.10;99.90;;;;;;6154351;23;20068;-86
2023/01/16 03:44:29;;;;;;;16.60;5.40;;;3.10;99.90;;;;;;6152791;23;20010;-86
2023/01/16 03:46:56;;;;;;;11.38;5.18;;;3.10;99.90;;;;;;6129013;23;20021;-86
2023/01/16 03:49:37;;;;;;;11.02;5.05;;;3.10;99.90;;;;;;6153811;23;20037;-86
2023/01/16 03:52:06;;;;;;;13.90;5.18;;;3.10;99.90;;;;;;6129870;23;20045;-86
2023/01/16 03:54:41;;;;;;;12.75;5.43;;;3.00;99.90;;;;;;6154642;23;20434;-86
2023/01/16 03:57:21;;;;;;;12.70;4.80;;;3.00;99.90;;;;;;6155770;23;20031;-86
2023/01/16 03:59:49;;;;;;;12.93;4.82;;;3.00;99.90;;;;;;6129118;23;20013;-86
2023/01/16 04:03:00;;;;;;;13.63;5.47;;;2.90;99.90;;;;;;6153471;23;20014;-86
2023/01/16 04:05:59;;;;;;;13.50;5.32;;;2.90;99.90;;;;;;6105230;23;20013;-86
2023/01/16 04:08:35;;;;;;;15.90;6.68;;;3.00;99.90;;;;;;6153509;23;20013;-86
2023/01/16 04:11:01;;;;;;;17.25;6.68;;;3.00;99.90;;;;;;6130144;23;20433;-86
2023/01/16 04:13:38;;;;;;;15.60;7.03;;;3.50;99.90;;;;;;6130487;23;20021;-85
2023/01/16 04:16:08;;;;;;;15.23;7.28;;;3.10;99.90;;;;;;6130123;23;20016;-85
2023/01/16 04:18:35;;;;;;;13.15;7.53;;;3.20;99.90;;;;;;6158067;23;20092;-86
2023/01/16 04:21:05;;;;;;;15.80;7.03;;;3.30;99.90;;;;;;6131349;23;20005;-86
2023/01/16 04:23:31;;;;;;;13.88;7.22;;;3.30;99.90;;;;;;6154290;23;20017;-86
2023/01/16 04:25:56;;;;;;;16.45;7.45;;;3.40;99.90;;;;;;6132241;23;20472;-85
2023/01/16 04:28:22;;;;;;;15.05;7.85;;;3.40;99.90;;;;;;6156587;23;20014;-86
2023/01/16 04:30:48;;;;;;;17.10;8.30;;;4.00;99.90;;;;;;6155931;23;20459;-85
2023/01/16 04:33:13;;;;;;;12.85;8.20;;;3.60;99.90;;;;;;6157315;23;20096;-85
2023/01/16 04:35:39;;;;;;;14.73;8.85;;;3.90;99.90;;;;;;6155693;23;20024;-86
2023/01/16 04:38:05;;;;;;;13.77;8.30;;;3.70;99.90;;;;;;6130835;23;20056;-85
2023/01/16 04:40:30;;;;;;;15.65;9.15;;;3.50;99.90;;;;;;6131005;23;20013;-86
2023/01/16 04:42:56;;;;;;;20.33;10.10;;;4.40;99.90;;;;;;6155374;23;20036;-86
2023/01/16 04:45:22;;;;;;;16.08;9.48;;;4.10;99.90;;;;;;6158804;23;20064;-85
2023/01/16 04:47:48;;;;;;;16.10;10.13;;;4.40;99.90;;;;;;6154434;23;20009;-86
2023/01/16 04:50:15;;;;;;;18.92;10.60;;;3.60;99.90;;;;;;6130230;23;20009;-86
2023/01/16 04:52:42;;;;;;;22.10;10.82;;;3.70;99.90;;;;;;6130100;23;20014;-85
2023/01/16 04:55:08;;;;;;;16.73;10.05;;;4.10;99.90;;;;;;6154315;23;20013;-85
2023/01/16 04:57:34;;;;;;;18.02;10.63;;;3.70;99.90;;;;;;6154565;23;20054;-85
2023/01/16 05:00:00;;;;;;;15.07;10.63;;;3.90;99.90;;;;;;6129944;23;20065;-85
2023/01/16 05:02:25;;;;;;;23.13;11.65;;;3.80;99.90;;;;;;6156855;23;20014;-86
2023/01/16 05:04:51;;;;;;;19.10;11.32;;;3.80;99.90;;;;;;6155739;23;20418;-86
2023/01/16 05:07:17;;;;;;;20.60;12.52;;;3.90;99.90;;;;;;6155140;23;20013;-86
2023/01/16 05:09:42;;;;;;;17.25;11.93;;;3.90;99.90;;;;;;6155646;23;20013;-86
2023/01/16 05:12:08;;;;;;;22.13;12.98;;;4.40;99.90;;;;;;6131326;23;20017;-85
2023/01/16 05:14:34;;;;;;;21.90;14.18;;;3.90;99.90;;;;;;6130863;23;20080;-86
2023/01/16 05:16:59;;;;;;;18.50;12.45;;;4.00;99.90;;;;;;6154787;23;20013;-85
2023/01/16 05:19:25;;;;;;;22.48;13.60;;;4.00;99.90;;;;;;6154097;23;20440;-85
2023/01/16 05:21:50;;;;;;;26.00;14.50;;;4.00;99.90;;;;;;6131046;23;20013;-86
2023/01/16 05:24:16;;;;;;;24.05;14.77;;;4.00;99.90;;;;;;6131604;23;20421;-85
2023/01/16 05:26:42;;;;;;;21.15;13.82;;;4.00;99.90;;;;;;6155862;23;20022;-86
2023/01/16 05:29:07;;;;;;;22.23;14.40;;;3.90;99.90;;;;;;6156394;23;20010;-86
2023/01/16 05:31:33;;;;;;;23.27;15.57;;;3.80;99.90;;;;;;6159310;23;20328;-86
2023/01/16 05:33:59;;;;;;;22.40;14.43;;;3.70;99.90;;;;;;6132378;23;20460;-85
2023/01/16 05:36:24;;;;;;;25.10;16.73;;;3.90;99.90;;;;;;6157223;23;20096;-85
2023/01/16 05:38:50;;;;;;;24.95;16.45;;;4.30;99.90;;;;;;6131928;23;20037;-85
2023/01/16 05:41:16;;;;;;;27.63;17.13;;;4.30;99.90;;;;;;6157641;23;20105;-86
2023/01/16 05:43:42;;;;;;;26.25;17.13;;;3.30;99.90;;;;;;6156984;23;20037;-85
2023/01/16 05:46:08;;;;;;;28.58;17.55;;;3.40;99.90;;;;;;6131841;23;20080;-86
2023/01/16 05:48:35;;;;;;;25.75;18.02;;;4.20;99.90;;;;;;6156390;23;20064;-86
2023/01/16 05:51:02;;;;;;;29.65;18.60;;;3.40;99.90;;;;;;6156635;23;20041;-85
2023/01/16 05:53:27;;;;;;;28.35;18.63;;;4.10;99.90;;;;;;6156018;23;20152;-86
2023/01/16 05:55:53;;;;;;;29.48;18.27;;;3.70;99.90;;;;;;6132213;23;20452;-86
2023/01/16 05:58:19;;;;;;;30.15;20.02;;;2.90;99.90;;;;;;6132987;23;20037;-86
2023/01/16 06:00:45;;;;;;;26.27;18.95;;;3.00;99.90;;;;;;6134067;23;20360;-86
2023/01/16 06:03:11;;;;;;;33.17;19.73;;;3.80;99.90;;;;;;6159624;23;20009;-85
2023/01/16 06:05:36;;;;;;;33.90;20.70;;;2.90;99.90;;;;;;6156355;23;20021;-86
2023/01/16 06:08:03;;;;;;;29.25;20.45;;;2.90;99.90;;;;;;6153096;23;20025;-86
2023/01/16 06:10:28;;;;;;;35.47;23.23;;;2.80;99.90;;;;;;6154365;23;20025;-86
2023/01/16 06:12:55;;;;;;;40.17;23.13;;;2.80;99.90;;;;;;6152973;23;20352;-86
2023/01/16 06:15:20;;;;;;;45.78;23.67;;;3.70;99.90;;;;;;6127847;23;20432;-85
2023/01/16 06:17:46;;;;;;;35.30;23.10;;;3.80;99.90;;;;;;6153144;23;20014;-86
2023/01/16 06:20:12;;;;;;;46.72;23.85;;;3.00;99.90;;;;;;6152986;23;20022;-86
2023/01/16 06:22:38;;;;;;;38.33;23.08;;;4.00;99.90;;;;;;6127881;23;20017;-86
2023/01/16 06:25:04;;;;;;;31.85;22.00;;;3.00;99.90;;;;;;6152560;23;20068;-86
2023/01/16 06:27:32;;;;;;;37.03;22.02;;;3.10;99.90;;;;;;6152341;23;20025;-86
2023/01/16 06:29:57;;;;;;;28.85;21.63;;;3.20;99.90;;;;;;6152389;23;20425;-86
2023/01/16 06:32:23;;;;;;;32.30;21.50;;;3.20;99.90;;;;;;6152318;23;20010;-85
2023/01/16 06:34:49;;;;;;;34.60;21.40;;;3.30;99.90;;;;;;6154311;23;20017;-86
2023/01/16 06:37:14;;;;;;;36.88;20.52;;;3.30;99.90;;;;;;6153939;23;20436;-86
2023/01/16 06:39:40;;;;;;;35.90;20.13;;;3.30;99.90;;;;;;6151653;23;20010;-86
2023/01/16 06:42:06;;;;;;;37.55;21.65;;;3.60;99.90;;;;;;6152547;23;20005;-86
2023/01/16 06:44:33;;;;;;;34.72;21.60;;;3.30;99.90;;;;;;6127765;23;20010;-86
2023/01/16 06:46:59;;;;;;;31.92;20.20;;;3.60;99.90;;;;;;6152594;23;20329;-86
2023/01/16 06:49:25;;;;;;;34.75;21.40;;;3.20;99.90;;;;;;6128024;23;20053;-85
2023/01/16 06:51:50;;;;;;;33.88;19.75;;;3.20;99.90;;;;;;6152356;23;20452;-86
2023/01/16 06:54:16;;;;;;;31.40;20.15;;;3.20;99.90;;;;;;6151752;23;20049;-86
2023/01/16 06:56:41;;;;;;;29.92;18.40;;;3.40;99.90;;;;;;6152301;23;20043;-86
2023/01/16 06:59:07;;;;;;;31.25;18.38;;;3.10;99.90;;;;;;6152237;23;20444;-86
2023/01/16 07:01:33;;;;;;;27.20;15.65;;;3.80;99.90;;;;;;6152269;23;20101;-86
2023/01/16 07:03:58;;;;;;;26.85;16.58;;;3.10;99.90;;;;;;6152136;23;20137;-86
2023/01/16 07:06:24;;;;;;;27.30;16.85;;;3.10;99.90;;;;;;6153237;23;20084;-86
2023/01/16 07:08:50;;;;;;;29.30;16.30;;;3.00;99.90;;;;;;6151828;23;20009;-86
2023/01/16 07:11:17;;;;;;;21.35;14.93;;;3.00;99.90;;;;;;6152447;23;20014;-86
2023/01/16 07:13:42;;;;;;;28.83;15.57;;;3.00;99.90;;;;;;6154056;23;20025;-86
2023/01/16 07:24:30;;;;;;;23.92;15.65;;;3.00;99.90;;;;;;6152104;23;20025;-86
2023/01/16 07:26:59;;;;;;;28.92;15.20;;;2.90;99.90;;;;;;6151973;23;20060;-86
2023/01/16 07:29:27;;;;;;;23.33;14.55;;;3.00;99.90;;;;;;6151889;23;20010;-87
2023/01/16 07:31:53;;;;;;;29.27;15.18;;;3.00;99.90;;;;;;6153821;23;20381;-86
2023/01/16 07:34:19;;;;;;;28.10;15.02;;;3.00;99.90;;;;;;6151895;23;20029;-86
2023/01/16 07:36:44;;;;;;;28.77;14.95;;;3.00;99.90;;;;;;6153118;23;20021;-85
2023/01/16 07:39:10;;;;;;;25.15;15.05;;;3.00;99.90;;;;;;6153730;23;20014;-86
2023/01/16 07:41:35;;;;;;;28.13;15.52;;;3.00;99.90;;;;;;6127460;23;20449;-86
2023/01/16 07:44:01;;;;;;;24.70;15.25;;;3.00;99.90;;;;;;6153477;23;20017;-86
2023/01/16 07:46:27;;;;;;;28.00;14.25;;;3.30;99.90;;;;;;6151587;23;20317;-85
2023/01/16 07:48:55;;;;;;;24.73;15.18;;;3.00;99.90;;;;;;6127106;23;20015;-86
2023/01/16 07:51:20;;;;;;;25.52;13.52;;;3.00;99.90;;;;;;6126542;23;20014;-86
2023/01/16 07:53:46;;;;;;;26.02;14.77;;;3.00;99.90;;;;;;6152214;23;20010;-86
2023/01/16 07:56:11;;;;;;;23.45;14.35;;;3.00;99.90;;;;;;6153832;23;20377;-86
2023/01/16 07:58:39;;;;;;;23.80;13.73;;;3.00;99.90;;;;;;6127091;23;20060;-85
2023/01/16 08:01:05;;;;;;;22.17;14.43;;;3.10;99.90;;;;;;6153600;23;20388;-86
2023/01/16 08:03:31;;;;;;;24.83;13.63;;;3.10;99.90;;;;;;6151759;23;20017;-86
2023/01/16 08:05:57;;;;;;;21.63;13.18;;;3.30;99.90;;;;;;6126661;23;20069;-86
2023/01/16 08:08:25;;;;;;;24.55;13.35;;;3.10;99.90;;;;;;6152194;23;20010;-86
2023/01/16 08:10:59;;;;;;;21.45;12.50;;;3.10;99.90;;;;;;6153695;23;20340;-85
2023/01/16 08:13:26;;;;;;;25.67;13.07;;;3.20;99.90;;;;;;6151383;23;20381;-86
2023/01/16 08:15:53;;;;;;;29.40;12.88;;;3.20;99.90;;;;;;6151385;23;20021;-86
2023/01/16 08:18:19;;;;;;;25.08;13.35;;;3.10;99.90;;;;;;6151738;23;20108;-86
2023/01/16 08:20:46;;;;;;;26.05;12.88;;;3.20;99.90;;;;;;6151414;23;20025;-86
2023/01/16 08:23:12;;;;;;;24.05;13.00;;;3.30;99.90;;;;;;6126670;23;20073;-86
2023/01/16 08:25:38;;;;;;;24.30;13.30;;;3.80;99.90;;;;;;6126917;23;20104;-86
2023/01/16 08:28:05;;;;;;;19.88;11.98;;;3.20;99.90;;;;;;6127010;23;20045;-85
2023/01/16 08:30:30;;;;;;;22.10;12.63;;;3.30;99.90;;;;;;6126760;23;20013;-85
2023/01/16 08:33:00;;;;;;;20.38;12.43;;;4.00;99.90;;;;;;6126868;23;20010;-86
2023/01/16 08:35:26;;;;;;;24.58;12.15;;;4.10;99.90;;;;;;6126300;23;20028;-86
2023/01/16 08:37:52;;;;;;;22.00;11.77;;;3.80;99.90;;;;;;6153140;23;20021;-86
2023/01/16 08:40:18;;;;;;;20.85;12.07;;;4.10;99.90;;;;;;6151844;23;20088;-86
2023/01/16 08:51:24;;;;;;;16.38;11.55;;;3.60;99.90;;;;;;6151479;23;20282;-86
2023/01/16 08:53:56;;;;;;;18.60;11.38;;;3.60;99.90;;;;;;6153295;23;20041;-86
2023/01/16 08:56:22;;;;;;;20.60;11.20;;;3.60;99.90;;;;;;6151832;23;20025;-86
2023/01/16 08:58:48;;;;;;;15.60;10.13;;;3.70;99.90;;;;;;6151304;23;20029;-85
2023/01/16 09:01:15;;;;;;;14.68;10.10;;;3.70;99.90;;;;;;6126622;23;20049;-86
2023/01/16 09:03:44;;;;;;;15.48;10.27;;;3.80;99.90;;;;;;6126999;23;20033;-86
2023/01/16 09:06:09;;;;;;;18.15;10.73;;;4.40;99.90;;;;;;6153639;23;20009;-86
2023/01/16 09:08:35;;;;;;;14.45;8.98;;;3.80;99.90;;;;;;6153598;23;20036;-86
2023/01/16 09:13:51;;;;;;;13.90;8.88;;;3.90;99.90;;;;;;6155208;23;20032;-86
2023/01/16 09:16:18;;;;;;;15.68;9.18;;;3.90;99.90;;;;;;6128678;23;20096;-86
2023/01/16 09:18:43;;;;;;;11.60;8.10;;;3.90;99.90;;;;;;6154287;23;20014;-86
2023/01/16 09:21:09;;;;;;;12.88;8.60;;;4.50;99.90;;;;;;6153343;23;20088;-86
2023/01/16 09:23:35;;;;;;;12.45;7.75;;;4.00;99.90;;;;;;6153325;23;20425;-86
2023/01/16 09:26:00;;;;;;;11.00;8.18;;;4.00;99.90;;;;;;6153211;23;20088;-86
2023/01/16 09:28:26;;;;;;;12.77;7.75;;;4.00;99.90;;;;;;6129815;23;20064;-86
2023/01/16 09:30:52;;;;;;;12.55;7.47;;;4.00;99.90;;;;;;6154183;23;20024;-86
2023/01/16 09:33:17;;;;;;;10.30;6.93;;;4.10;99.90;;;;;;6152919;23;20382;-86
2023/01/16 09:35:43;;;;;;;13.70;7.45;;;4.10;99.90;;;;;;6155062;23;20017;-86
2023/01/16 09:38:08;;;;;;;12.32;7.28;;;4.10;99.90;;;;;;6128528;23;20018;-86
2023/01/16 09:40:34;;;;;;;13.07;6.45;;;4.80;99.90;;;;;;6153104;23;20026;-86
2023/01/16 09:43:39;;;;;;;11.40;6.43;;;4.60;99.90;;;;;;6152884;23;20048;-86
2023/01/16 09:46:18;;;;;;;;;;;4.20;99.90;;;;;;6155166;23;20390;-86
2023/01/16 09:49:05;;;;;;;11.13;6.00;;;4.20;99.90;;;;;;6127746;23;20299;-86
2023/01/16 09:58:35;;;;;;;9.05;6.20;;;4.20;99.90;;;;;;6128747;23;20091;-85
2023/01/16 10:00:15;;;;;;;10.05;5.30;;;4.30;99.90;;;;;;6153018;23;20017;-86
2023/01/16 10:02:41;;;;;;;7.95;5.10;;;4.30;99.90;;;;;;6153053;23;20096;-86
2023/01/16 10:05:10;;;;;;;9.98;5.35;;;4.30;99.90;;;;;;6153332;23;20475;-86
2023/01/16 10:07:38;;;;;;;10.63;5.53;;;4.30;99.90;;;;;;6153396;23;20009;-86
2023/01/16 10:10:34;;;;;;;7.75;4.95;;;4.30;99.90;;;;;;6153122;23;20017;-85
2023/01/16 10:13:18;;;;;;;9.77;5.30;;;4.30;99.90;;;;;;6153045;23;20062;-86
2023/01/16 10:15:47;;;;;;;8.00;4.72;;;4.30;99.90;;;;;;6152463;23;20017;-86
2023/01/16 10:18:26;;;;;;;10.45;5.22;;;4.30;99.90;;;;;;6155382;23;20084;-85
2023/01/16 10:21:13;;;;;;;9.10;5.85;;;4.30;99.90;;;;;;6153296;23;20110;-85
2023/01/16 10:24:20;;;;;;;11.07;5.75;;;4.30;99.90;;;;;;6152982;23;20018;-86
2023/01/16 10:26:59;;;;;;;10.30;5.75;;;4.30;99.90;;;;;;6094797;23;20417;-86
2023/01/16 10:29:50;;;;;;;10.82;5.65;;;4.40;99.90;;;;;;6154705;23;20352;-86
2023/01/16 10:32:28;;;;;;;8.77;5.63;;;4.30;99.90;;;;;;6154898;23;20019;-84
2023/01/16 10:34:56;;;;;;;11.18;5.20;;;4.30;99.90;;;;;;6158061;23;20017;-85
2023/01/16 10:37:23;;;;;;;10.15;5.10;;;4.40;99.90;;;;;;6127980;23;20120;-85
2023/01/16 10:39:51;;;;;;;16.52;5.35;;;4.40;99.90;;;;;;6152607;23;20091;-85
2023/01/16 10:51:04;;;;;;;10.88;6.00;;;4.20;99.90;;;;;;6092596;23;20104;-84
2023/01/16 10:53:31;;;;;;;7.45;5.00;;;4.20;99.90;;;;;;6068556;23;20389;-83
2023/01/16 10:55:58;;;;;;;11.18;4.60;;;4.20;99.90;;;;;;6092626;23;20389;-85
2023/01/16 10:58:35;;;;;;;8.55;3.80;;;4.10;99.90;;;;;;6068338;23;20018;-84
2023/01/16 11:01:11;;;;;;;8.18;3.78;;;4.10;99.90;;;;;;6067448;23;20081;-84
2023/01/16 11:03:40;;;;;;;9.23;3.92;;;4.00;99.90;;;;;;6092092;23;20025;-84
2023/01/16 11:06:10;;;;;;;9.90;4.07;;;4.00;99.90;;;;;;6091886;23;20101;-84
2023/01/16 11:08:35;;;;;;;6.45;3.60;;;4.00;99.90;;;;;;6067829;23;20018;-84
2023/01/16 11:11:02;;;;;;;6.65;3.80;;;3.90;99.90;;;;;;6068057;23;20021;-84
2023/01/16 11:19:23;;;;;;;7.78;3.88;;;3.90;99.90;;;;;;6061210;23;20322;-85
2023/01/16 11:21:52;;;;;;;8.60;3.60;;;4.20;99.90;;;;;;6096618;23;20025;-85
2023/01/16 11:24:24;;;;;;;6.30;3.80;;;3.90;99.90;;;;;;6096421;23;20025;-85
2023/01/16 11:26:55;;;;;;;7.85;4.20;;;3.90;99.90;;;;;;6096260;23;20093;-85
2023/01/16 11:29:24;;;;;;;7.93;4.10;;;4.10;99.90;;;;;;6096282;23;20014;-85
2023/01/16 11:31:59;;;;;;;8.30;4.07;;;3.90;99.90;;;;;;6121223;23;20029;-85
2023/01/16 11:34:27;;;;;;;6.40;3.92;;;3.90;99.90;;;;;;6096662;23;20018;-85
2023/01/16 11:37:04;;;;;;;7.47;4.22;;;3.90;99.90;;;;;;6121073;23;20053;-84
2023/01/16 11:39:34;;;;;;;7.78;3.63;;;3.90;99.90;;;;;;6096609;23;20397;-85
2023/01/16 11:46:02;;;;;;;7.88;4.53;;;3.90;99.90;;;;;;6096626;23;20006;-84
2023/01/16 11:47:44;;;;;;;7.85;4.28;;;3.90;99.90;;;;;;6096595;23;20085;-85
2023/01/16 11:50:25;;;;;;;9.02;4.30;;;3.90;99.90;;;;;;6096456;23;20025;-84
2023/01/16 11:52:51;;;;;;;4.75;3.53;;;4.00;99.90;;;;;;6132654;23;20021;-85
2023/01/16 11:55:17;;;;;;;8.77;4.80;;;4.00;99.90;;;;;;6128086;23;20017;-85
2023/01/16 11:58:08;;;;;;;9.27;4.60;;;4.00;99.90;;;;;;6151449;23;20109;-86
2023/01/16 12:00:48;;;;;;;9.20;4.70;;;3.90;99.90;;;;;;6151557;23;20068;-85
2023/01/16 12:03:48;;;;;;;7.70;4.70;;;3.90;99.90;;;;;;6153175;23;20017;-85
2023/01/16 12:06:25;;;;;;;7.40;4.95;;;3.90;99.90;;;;;;6127252;23;20032;-85
2023/01/16 12:09:12;;;;;;;6.90;4.70;;;3.90;99.90;;;;;;6151986;23;20010;-85
2023/01/16 12:15:11;;;;;;;6.97;4.70;;;4.00;99.90;;;;;;6151412;23;20022;-84
2023/01/16 12:17:46;;;;;;;10.10;5.10;;;4.00;99.90;;;;;;6151923;23;20018;-84
2023/01/16 12:20:36;;;;;;;6.25;5.22;;;4.00;99.90;;;;;;6152587;23;20045;-85
2023/01/16 12:23:45;;;;;;;6.93;4.78;;;4.00;99.90;;;;;;6151890;23;20036;-85
2023/01/16 12:26:25;;;;;;;8.43;5.80;;;4.00;99.90;;;;;;6153119;23;20076;-85
2023/01/16 12:29:06;;;;;;;7.75;5.32;;;4.00;99.90;;;;;;6151574;23;20476;-85
2023/01/16 12:31:58;;;;;;;9.73;5.50;;;4.10;99.90;;;;;;6127129;23;20010;-85
2023/01/16 12:34:42;;;;;;;12.25;6.07;;;4.10;99.90;;;;;;6153510;23;20106;-85
2023/01/16 12:37:36;;;;;;;10.52;6.38;;;4.20;99.90;;;;;;6151703;23;20108;-85
2023/01/16 12:40:27;;;;;;;9.27;5.80;;;4.20;99.90;;;;;;6129391;23;20056;-85
2023/01/16 12:43:20;;;;;;;8.88;5.82;;;4.20;99.90;;;;;;6154354;23;20013;-85
2023/01/16 12:45:52;;;;;;;12.25;6.05;;;4.20;99.90;;;;;;6154167;23;20014;-85
2023/01/16 12:48:36;;;;;;;8.27;6.25;;;4.30;99.90;;;;;;6154476;23;20013;-84
2023/01/16 12:51:05;;;;;;;;;;;4.30;99.90;;;;;;6156118;23;20045;-86
2023/01/16 12:54:00;;;;;;;11.18;6.10;;;4.40;99.90;;;;;;6154079;23;19912;-85
2023/01/16 12:56:45;;;;;;;8.98;6.40;;;4.30;99.90;;;;;;6069028;23;20101;-85
2023/01/16 12:59:37;;;;;;;8.52;5.70;;;4.40;99.90;;;;;;6069666;23;20026;-85
2023/01/16 13:02:18;;;;;;;12.32;6.68;;;4.40;99.90;;;;;;6069473;23;20018;-85
2023/01/16 13:04:50;;;;;;;10.65;7.20;;;4.50;99.90;;;;;;6069547;23;20030;-85
2023/01/16 13:07:17;;;;;;;11.38;7.40;;;4.40;99.90;;;;;;6093524;23;20018;-84
2023/01/16 13:15:41;;;;;;;13.00;7.40;;;4.40;99.90;;;;;;6093390;23;20025;-86
2023/01/16 13:18:34;;;;;;;11.05;7.03;;;4.40;99.90;;;;;;6069358;23;20014;-85
2023/01/16 13:21:03;;;;;;;8.48;6.05;;;4.40;99.90;;;;;;6069433;23;20011;-86
2023/01/16 13:23:36;;;;;;;11.85;7.78;;;4.40;99.90;;;;;;6045227;23;20127;-85
2023/01/16 13:26:07;;;;;;;13.73;6.90;;;4.50;99.90;;;;;;6045129;23;20057;-85
2023/01/16 13:28:55;;;;;;;14.05;6.90;;;4.50;99.90;;;;;;6047497;23;20360;-85
2023/01/16 13:31:58;;;;;;;10.85;6.22;;;4.50;99.90;;;;;;6093651;23;20011;-86
2023/01/16 13:34:29;;;;;;;10.55;7.03;;;4.60;99.90;;;;;;6102529;23;20017;-85
2023/01/16 13:37:17;;;;;;;12.23;6.82;;;4.50;99.90;;;;;;6128703;23;20018;-85
2023/01/16 13:40:03;;;;;;;9.50;6.15;;;4.50;99.90;;;;;;6152716;23;20014;-85
2023/01/16 13:42:30;;;;;;;7.25;5.93;;;4.50;99.90;;;;;;6155051;23;20020;-85
2023/01/16 13:47:47;;;;;;;12.18;5.63;;;4.50;99.90;;;;;;6154814;23;20014;-85
2023/01/16 13:50:25;;;;;;;11.48;5.80;;;4.60;99.90;;;;;;6128217;23;20017;-85
2023/01/16 13:52:55;;;;;;;8.75;6.13;;;4.60;99.90;;;;;;6154818;23;20013;-85
2023/01/16 13:55:39;;;;;;;8.75;6.00;;;4.60;99.90;;;;;;6152418;23;20059;-85
2023/01/16 13:58:18;;;;;;;14.07;7.43;;;4.60;99.90;;;;;;6154785;23;20108;-85
2023/01/16 14:00:44;;;;;;;9.63;6.30;;;4.60;99.90;;;;;;6154796;23;20016;-85
2023/01/16 14:03:20;;;;;;;9.35;5.65;;;4.70;99.90;;;;;;6152799;23;20079;-85
2023/01/16 14:05:51;;;;;;;8.30;6.13;;;4.70;99.90;;;;;;6152762;23;20444;-85
2023/01/16 14:11:15;;;;;;;8.07;5.68;;;4.90;99.90;;;;;;6152540;23;20018;-85